Terminal Aerodrome Forecast
Issued by NWS

Home | Current Version | Previous Version | Text Only | Print | Product List | Glossary On
Versions: 1 2 3 4 5 6 7 8 9 10 11 12 13 14 15 16
000
FTUS41 KBTV 242320
TAFRUT
TAF
KRUT 242320Z 2500/2524 15015G25KT 6SM -RA SCT025 OVC035
      WS020/17045KT
      TEMPO 2500/2503 5SM -RA BR OVC022
     FM250300 15013G21KT 6SM -SHRA BR BKN025 OVC035 WS020/20050KT
     FM251300 25012G26KT 3SM RA BR OVC035
     FM251500 24015G28KT P6SM VCSH BKN035 OVC050
      AMD LTD TO CLD VIS AND WIND=

USA.gov is the U.S. government's official web portal to all federal, state and local government web resources and services.